Time;durP1;ratioP1;P1;durP2;ratioP2;P2;SDS_P1;SDS_P2;PMS_P1;PMS_P2;Temp;Humidity;BMP_temperature;BMP_pressure;BME280_temperature;BME280_humidity;BME280_pressure;Samples;Min_cycle;Max_cycle;Signal;HPM_P1;HPM_P2
2021/09/09 00:00:26;;;;;;;21.07;16.23;;;;;;;11.17;80.95;99392.86;2295597;77;20967;-81
2021/09/09 00:03:28;;;;;;;28.53;17.57;;;;;;;11.15;81.12;99387.16;2266888;77;21018;-81
2021/09/09 00:06:28;;;;;;;26.77;18.23;;;;;;;11.12;81.41;99391.90;2267001;78;20964;-81
2021/09/09 00:09:29;;;;;;;23.33;18.67;;;;;;;11.12;81.52;99389.71;2263585;77;20983;-81
2021/09/09 00:12:29;;;;;;;21.20;17.50;;;;;;;11.17;81.64;99389.37;2248114;78;20958;-82
2021/09/09 00:15:30;;;;;;;23.70;18.70;;;;;;;11.20;81.60;99390.73;2279857;77;20960;-80
2021/09/09 00:18:30;;;;;;;27.53;20.60;;;;;;;11.23;81.77;99394.70;2252806;78;20975;-81
2021/09/09 00:21:31;;;;;;;25.90;18.40;;;;;;;11.21;81.36;99389.88;2260334;78;21380;-82
2021/09/09 00:24:31;;;;;;;27.50;18.93;;;;;;;11.16;81.34;99396.75;2259646;77;21012;-82
2021/09/09 00:27:32;;;;;;;25.70;18.37;;;;;;;11.13;81.47;99395.39;2266515;78;21010;-81
2021/09/09 00:30:32;;;;;;;24.90;19.87;;;;;;;11.12;81.49;99393.20;2301913;77;21026;-81
2021/09/09 00:33:33;;;;;;;23.97;18.07;;;;;;;11.07;81.44;99392.23;2288536;77;20975;-81
2021/09/09 00:36:33;;;;;;;22.53;17.53;;;;;;;10.99;81.13;99389.91;2281141;78;21003;-81
2021/09/09 00:39:34;;;;;;;22.83;19.47;;;;;;;10.93;81.22;99388.48;2275692;77;21401;-81
2021/09/09 00:42:34;;;;;;;25.30;18.50;;;;;;;10.93;81.41;99385.00;2301815;77;20944;-82
2021/09/09 00:45:35;;;;;;;26.87;19.17;;;;;;;10.93;81.45;99388.91;2273532;77;20925;-81
2021/09/09 00:48:35;;;;;;;22.87;17.53;;;;;;;10.90;81.43;99386.25;2263132;78;20975;-81
2021/09/09 00:51:36;;;;;;;21.97;17.73;;;;;;;10.85;81.50;99383.13;2283205;78;20971;-81
2021/09/09 00:54:36;;;;;;;24.50;16.37;;;;;;;10.84;81.37;99389.63;2275133;78;20986;-81
2021/09/09 00:57:37;;;;;;;23.13;17.57;;;;;;;10.80;81.19;99383.88;2252481;78;21371;-81
2021/09/09 01:00:37;;;;;;;26.95;18.75;;;;;;;10.77;81.29;99382.52;2280679;77;21380;-81
2021/09/09 01:03:38;;;;;;;29.97;18.13;;;;;;;10.72;81.45;99378.94;2282028;77;20971;-81
2021/09/09 01:06:38;;;;;;;21.03;16.90;;;;;;;10.70;81.37;99384.55;2280727;78;21030;-80
2021/09/09 01:09:39;;;;;;;20.53;16.90;;;;;;;10.68;81.37;99387.56;2263504;77;21398;-81
2021/09/09 01:12:39;;;;;;;21.13;16.77;;;;;;;10.64;81.18;99389.66;2261725;78;20968;-81
2021/09/09 01:15:40;;;;;;;34.13;18.00;;;;;;;10.59;81.11;99385.64;2277240;77;20976;-80
2021/09/09 01:18:40;;;;;;;28.03;16.07;;;;;;;10.61;81.54;99387.86;2259295;78;20973;-80
2021/09/09 01:21:41;;;;;;;28.40;19.17;;;;;;;10.59;81.44;99388.68;2262220;78;21003;-81
2021/09/09 01:24:41;;;;;;;23.03;17.60;;;;;;;10.57;81.65;99384.73;2279341;77;20978;-81
2021/09/09 01:27:42;;;;;;;31.13;18.93;;;;;;;10.58;81.70;99382.58;2267209;77;21619;-81
2021/09/09 01:30:42;;;;;;;27.70;18.90;;;;;;;10.59;81.67;99384.77;2248562;78;21007;-80
2021/09/09 01:33:43;;;;;;;26.70;19.40;;;;;;;10.63;82.07;99387.47;2281526;77;20952;-81
2021/09/09 01:36:43;;;;;;;22.97;17.80;;;;;;;10.66;81.94;99387.95;2279938;77;20952;-81
2021/09/09 01:39:44;;;;;;;25.27;20.77;;;;;;;10.68;82.06;99388.44;2284643;77;20986;-80
2021/09/09 01:42:47;;;;;;;26.37;18.27;;;;;;;10.66;82.25;99395.36;2254183;77;21007;-81
2021/09/09 01:45:48;;;;;;;24.63;17.20;;;;;;;10.67;81.96;99395.81;2282263;78;20940;-81
2021/09/09 01:48:48;;;;;;;31.47;20.83;;;;;;;10.67;81.67;99396.24;2288862;77;21371;-81
2021/09/09 01:51:49;;;;;;;22.47;16.73;;;;;;;10.69;82.49;99393.23;2283045;77;21359;-80
2021/09/09 01:54:49;;;;;;;21.43;16.97;;;;;;;10.71;81.86;99388.50;2266945;77;20943;-80
2021/09/09 01:57:49;;;;;;;26.30;18.27;;;;;;;10.66;81.81;99394.05;2247763;78;20967;-81
2021/09/09 02:00:50;;;;;;;24.47;17.57;;;;;;;10.63;81.75;99396.60;2290033;77;20979;-80
2021/09/09 02:03:51;;;;;;;24.90;17.20;;;;;;;10.58;81.68;99393.02;2279878;78;20949;-80
2021/09/09 02:06:51;;;;;;;32.23;17.07;;;;;;;10.58;81.91;99394.33;2286555;77;20935;-80
2021/09/09 02:09:52;;;;;;;165.60;29.70;;;;;;;10.53;81.66;99391.63;2268758;78;20991;-81
2021/09/09 02:12:52;;;;;;;27.53;18.60;;;;;;;10.52;81.88;99387.67;2291108;78;21011;-80
2021/09/09 02:15:53;;;;;;;29.40;19.67;;;;;;;10.53;81.74;99385.52;2284463;78;20964;-80
2021/09/09 02:18:53;;;;;;;23.63;19.27;;;;;;;10.53;81.93;99382.91;2263008;78;21354;-81
2021/09/09 02:21:54;;;;;;;23.63;18.40;;;;;;;10.52;82.10;99383.76;2283336;77;21007;-80
2021/09/09 02:24:54;;;;;;;56.30;21.23;;;;;;;10.49;82.11;99383.70;2290087;77;21438;-80
2021/09/09 02:27:55;;;;;;;30.13;19.93;;;;;;;10.49;82.21;99387.19;2274538;77;20968;-80
2021/09/09 02:30:55;;;;;;;25.90;19.57;;;;;;;10.53;82.61;99385.09;2259364;77;20960;-80
2021/09/09 02:33:56;;;;;;;70.23;24.67;;;;;;;10.57;82.38;99383.43;2273679;77;20949;-81
2021/09/09 02:36:57;;;;;;;29.17;20.00;;;;;;;10.57;82.66;99379.52;2274678;77;20955;-81
2021/09/09 02:39:57;;;;;;;38.23;19.50;;;;;;;10.58;82.50;99384.31;2292526;77;21004;-80
2021/09/09 02:42:57;;;;;;;120.80;29.03;;;;;;;10.57;82.37;99376.91;2279401;77;21366;-80
2021/09/09 02:45:58;;;;;;;35.30;20.10;;;;;;;10.59;82.50;99375.20;2279845;78;20991;-81
2021/09/09 02:48:59;;;;;;;35.90;22.87;;;;;;;10.60;82.52;99380.88;2292197;78;20960;-80
2021/09/09 02:51:59;;;;;;;33.03;20.63;;;;;;;10.60;82.73;99382.19;2250110;77;21015;-80
2021/09/09 02:55:00;;;;;;;33.93;20.40;;;;;;;10.62;82.88;99379.18;2254607;77;20967;-80
2021/09/09 02:58:00;;;;;;;31.20;22.77;;;;;;;10.60;82.69;99383.48;2267879;78;21024;-80
2021/09/09 03:01:01;;;;;;;25.33;20.23;;;;;;;10.58;82.76;99385.19;2284296;78;20990;-80
2021/09/09 03:04:01;;;;;;;26.57;20.83;;;;;;;10.55;82.39;99379.91;2267082;78;20964;-80
2021/09/09 03:07:01;;;;;;;29.97;20.70;;;;;;;10.54;82.59;99382.06;2279470;77;21005;-80
2021/09/09 03:10:02;;;;;;;34.60;23.03;;;;;;;10.52;82.46;99382.03;2267572;77;21379;-81
2021/09/09 03:13:02;;;;;;;31.97;22.73;;;;;;;10.50;82.93;99382.42;2297624;77;21006;-81
2021/09/09 03:16:03;;;;;;;49.37;21.87;;;;;;;10.50;82.75;99384.16;2288429;77;20976;-80
2021/09/09 03:19:03;;;;;;;31.77;21.20;;;;;;;10.49;82.28;99386.30;2293516;77;21019;-81
2021/09/09 03:22:04;;;;;;;28.47;22.23;;;;;;;10.44;82.43;99381.42;2270511;77;20967;-81
2021/09/09 03:25:05;;;;;;;24.53;20.10;;;;;;;10.43;83.04;99384.45;2254878;78;21415;-81
2021/09/09 03:28:05;;;;;;;26.47;20.70;;;;;;;10.43;82.76;99384.88;2267139;78;21359;-81
2021/09/09 03:31:06;;;;;;;186.37;32.90;;;;;;;10.37;82.95;99384.71;2276187;77;20977;-80
2021/09/09 03:34:06;;;;;;;64.10;23.73;;;;;;;10.34;83.06;99378.13;2260221;78;21014;-79
2021/09/09 03:37:07;;;;;;;31.00;20.20;;;;;;;10.38;83.55;99381.25;2263522;78;20999;-79
2021/09/09 03:40:07;;;;;;;102.77;59.30;;;;;;;10.34;83.07;99377.70;2268910;77;20972;-80
2021/09/09 03:43:08;;;;;;;33.87;24.70;;;;;;;10.27;82.87;99377.11;2275545;78;21371;-80
2021/09/09 03:46:08;;;;;;;30.90;20.87;;;;;;;10.20;82.60;99372.19;2257638;77;21390;-81
2021/09/09 03:49:09;;;;;;;31.33;21.60;;;;;;;10.16;82.98;99380.76;2288187;78;21023;-80
2021/09/09 03:52:09;;;;;;;28.77;21.30;;;;;;;10.15;83.04;99384.64;2267772;78;21034;-79
2021/09/09 03:55:10;;;;;;;32.17;24.00;;;;;;;10.16;83.34;99376.84;2255608;77;20971;-80
2021/09/09 03:58:10;;;;;;;43.87;26.97;;;;;;;10.19;83.62;99375.61;2283093;77;20967;-80
2021/09/09 04:01:11;;;;;;;35.00;24.53;;;;;;;10.21;83.99;99368.73;2273808;78;21356;-80
2021/09/09 04:04:11;;;;;;;35.87;24.70;;;;;;;10.25;84.00;99364.45;2278716;78;21000;-80
2021/09/09 04:07:12;;;;;;;37.03;25.20;;;;;;;10.29;84.10;99366.71;2268285;77;21054;-79
2021/09/09 04:10:12;;;;;;;95.13;30.17;;;;;;;10.32;83.91;99370.27;2248221;78;20987;-80
2021/09/09 04:13:13;;;;;;;39.67;27.83;;;;;;;10.37;84.09;99372.97;2254023;77;21022;-81
2021/09/09 04:16:13;;;;;;;39.87;25.23;;;;;;;10.44;84.56;99367.06;2257130;78;20968;-80
2021/09/09 04:19:14;;;;;;;38.47;25.20;;;;;;;10.47;84.21;99368.00;2260710;78;21350;-80
2021/09/09 04:22:14;;;;;;;57.77;26.43;;;;;;;10.49;83.92;99365.42;2290146;78;21019;-80
2021/09/09 04:25:15;;;;;;;48.27;24.30;;;;;;;10.51;83.80;99365.03;2292564;77;21039;-79
2021/09/09 04:28:15;;;;;;;49.00;27.07;;;;;;;10.50;83.32;99361.54;2290402;77;20971;-80
2021/09/09 04:31:16;;;;;;;41.40;27.27;;;;;;;10.56;84.21;99367.31;2287628;77;21010;-80
2021/09/09 04:34:16;;;;;;;35.40;25.20;;;;;;;10.59;84.12;99362.15;2288239;78;21375;-79
2021/09/09 04:37:17;;;;;;;51.87;25.33;;;;;;;10.65;83.96;99363.58;2279418;78;21356;-81
2021/09/09 04:40:19;;;;;;;47.90;26.23;;;;;;;10.70;83.84;99362.36;2243522;78;21426;-80
2021/09/09 04:43:20;;;;;;;48.37;27.37;;;;;;;10.74;83.56;99365.06;2272911;77;20967;-79
2021/09/09 04:46:20;;;;;;;189.30;36.17;;;;;;;10.80;83.65;99364.30;2246260;78;20982;-80
2021/09/09 04:49:21;;;;;;;43.43;25.70;;;;;;;10.85;83.71;99358.31;2257371;78;20956;-79
2021/09/09 04:52:21;;;;;;;41.17;25.70;;;;;;;10.98;83.96;99362.45;2286331;77;20951;-80
2021/09/09 04:55:22;;;;;;;80.03;27.70;;;;;;;11.10;83.86;99362.67;2286738;77;20963;-79
2021/09/09 04:58:22;;;;;;;43.63;26.27;;;;;;;11.24;83.85;99357.27;2263990;77;21312;-80
2021/09/09 05:01:23;;;;;;;54.25;26.23;;;;;;;11.37;83.96;99358.39;2288002;78;20980;-79
2021/09/09 05:04:23;;;;;;;35.87;26.03;;;;;;;11.52;83.72;99359.95;2256158;78;21010;-79
2021/09/09 05:07:24;;;;;;;45.77;25.30;;;;;;;11.67;83.70;99360.19;2269453;78;20963;-79
2021/09/09 05:10:24;;;;;;;37.85;25.80;;;;;;;11.86;83.68;99355.27;2254976;77;20924;-80
2021/09/09 05:13:25;;;;;;;32.53;25.33;;;;;;;12.04;83.40;99352.91;2290476;77;20992;-79
2021/09/09 05:16:25;;;;;;;40.50;26.48;;;;;;;12.21;83.26;99354.48;2293937;78;20972;-80
2021/09/09 05:19:27;;;;;;;34.18;26.20;;;;;;;12.41;83.13;99356.94;2263512;78;21033;-79
2021/09/09 05:22:27;;;;;;;35.85;26.60;;;;;;;12.63;82.96;99352.41;2248433;78;21042;-80
2021/09/09 05:25:28;;;;;;;48.68;27.22;;;;;;;12.83;82.56;99347.39;2256440;77;21039;-80
2021/09/09 05:28:28;;;;;;;51.20;26.02;;;;;;;13.03;82.28;99355.48;2291381;77;20964;-79
2021/09/09 05:31:29;;;;;;;41.88;24.55;;;;;;;13.19;81.76;99349.56;2277312;78;20955;-79
2021/09/09 05:34:30;;;;;;;35.73;24.63;;;;;;;13.38;81.67;99351.48;2254041;77;21339;-79
2021/09/09 05:37:36;;;;;;;52.38;25.30;;;;;;;13.57;81.24;99349.02;2257721;77;20976;-78
2021/09/09 05:40:37;;;;;;;69.70;26.33;;;;;;;13.75;80.93;99345.20;2275601;78;21027;-79
2021/09/09 05:43:37;;;;;;;78.22;26.27;;;;;;;13.94;80.45;99344.50;2273846;77;20968;-79
2021/09/09 05:46:38;;;;;;;31.23;23.35;;;;;;;14.13;80.25;99344.61;2260095;77;20968;-81
2021/09/09 05:49:38;;;;;;;36.25;23.10;;;;;;;14.30;79.92;99343.82;2285470;78;20991;-81
2021/09/09 05:52:39;;;;;;;47.03;24.47;;;;;;;14.49;79.51;99343.94;2294920;77;20944;-80
2021/09/09 05:55:40;;;;;;;38.80;23.65;;;;;;;14.69;79.15;99337.44;2276341;77;20939;-81
2021/09/09 05:58:40;;;;;;;50.05;24.85;;;;;;;14.91;78.77;99341.48;2264605;78;21351;-80
2021/09/09 06:01:41;;;;;;;35.98;22.93;;;;;;;15.01;78.28;99335.80;2271173;78;21332;-80
2021/09/09 06:04:41;;;;;;;32.08;23.40;;;;;;;15.21;77.92;99335.83;2271530;78;20964;-80
2021/09/09 06:07:42;;;;;;;33.98;23.80;;;;;;;15.38;77.52;99335.84;2286608;78;21086;-81
2021/09/09 06:10:42;;;;;;;32.73;25.02;;;;;;;15.59;77.01;99339.81;2265716;78;20967;-80
2021/09/09 06:13:43;;;;;;;37.28;23.25;;;;;;;15.80;76.62;99332.38;2271368;77;21019;-80
2021/09/09 06:16:43;;;;;;;28.73;22.62;;;;;;;16.00;75.81;99332.33;2261371;77;20999;-79
2021/09/09 06:19:44;;;;;;;37.28;24.55;;;;;;;16.14;75.46;99330.10;2259732;78;20951;-80
2021/09/09 06:22:44;;;;;;;28.35;21.90;;;;;;;16.33;75.07;99330.92;2271574;78;20968;-80
2021/09/09 06:25:45;;;;;;;32.80;23.25;;;;;;;16.54;74.62;99335.26;2276263;78;21011;-80
2021/09/09 06:28:45;;;;;;;51.20;22.48;;;;;;;16.69;73.86;99328.63;2274203;77;20951;-81
2021/09/09 06:31:46;;;;;;;32.03;21.48;;;;;;;16.87;73.60;99330.29;2267359;77;21014;-81
2021/09/09 06:34:52;;;;;;;39.50;22.82;;;;;;;17.09;73.12;99324.00;2253292;77;21418;-78
2021/09/09 06:37:53;;;;;;;41.80;21.48;;;;;;;17.27;72.57;99322.98;2272227;78;21107;-81
2021/09/09 06:40:54;;;;;;;25.32;20.65;;;;;;;17.44;72.00;99334.32;2248188;78;21067;-80
2021/09/09 06:43:55;;;;;;;28.43;20.37;;;;;;;17.64;71.61;99331.51;2274391;77;21348;-77
2021/09/09 06:46:55;;;;;;;415.08;52.23;;;;;;;17.87;70.98;99323.41;2295115;77;20998;-79
2021/09/09 06:49:56;;;;;;;28.83;20.75;;;;;;;18.03;70.76;99325.00;2268685;78;20964;-81
2021/09/09 06:52:56;;;;;;;30.60;19.62;;;;;;;18.17;70.29;99319.56;2266387;77;21042;-79
2021/09/09 06:55:57;;;;;;;27.40;21.17;;;;;;;18.37;69.09;99324.65;2280732;78;20961;-80
2021/09/09 06:58:57;;;;;;;32.25;19.75;;;;;;;18.51;68.71;99320.52;2286733;77;20991;-80
2021/09/09 07:01:58;;;;;;;23.80;19.95;;;;;;;18.67;68.36;99326.06;2276580;78;20995;-77
2021/09/09 07:04:59;;;;;;;29.10;19.23;;;;;;;18.88;67.82;99328.87;2255733;77;20990;-79
2021/09/09 07:07:59;;;;;;;31.02;20.62;;;;;;;19.04;67.49;99330.40;2272998;77;21089;-80
2021/09/09 07:11:00;;;;;;;24.37;18.82;;;;;;;19.31;66.98;99330.02;2270823;78;21014;-79
2021/09/09 07:14:00;;;;;;;23.05;18.52;;;;;;;19.47;65.53;99332.41;2279405;77;20954;-79
2021/09/09 07:17:00;;;;;;;30.15;19.95;;;;;;;19.60;65.51;99331.34;2285678;77;21015;-80
2021/09/09 07:20:01;;;;;;;23.62;18.57;;;;;;;19.78;65.17;99335.00;2261953;77;20979;-80
2021/09/09 07:23:02;;;;;;;24.63;19.27;;;;;;;19.99;64.30;99335.09;2276074;77;21008;-80
2021/09/09 07:26:03;;;;;;;20.80;17.48;;;;;;;20.15;63.97;99334.36;2264610;77;20952;-80
2021/09/09 07:29:03;;;;;;;21.55;17.62;;;;;;;20.28;63.22;99333.22;2278545;78;21348;-80
2021/09/09 07:32:04;;;;;;;22.35;17.67;;;;;;;20.35;62.08;99336.17;2263237;77;21413;-81
2021/09/09 07:35:05;;;;;;;20.62;17.02;;;;;;;20.47;62.96;99341.27;2269991;77;20936;-80
2021/09/09 07:38:06;;;;;;;22.52;18.05;;;;;;;20.64;62.69;99336.48;2292695;77;21026;-80
2021/09/09 07:41:07;;;;;;;22.17;17.67;;;;;;;20.78;62.59;99337.52;2288152;77;20995;-80
2021/09/09 07:44:08;;;;;;;26.87;18.55;;;;;;;21.03;62.14;99333.89;2255725;77;21107;-80
2021/09/09 07:47:08;;;;;;;39.18;29.27;;;;;;;21.26;61.43;99338.70;2275329;77;20952;-80
2021/09/09 07:50:10;;;;;;;35.52;19.50;;;;;;;21.45;60.92;99339.14;2283138;77;20967;-81
2021/09/09 07:53:10;;;;;;;23.85;17.60;;;;;;;21.67;60.58;99340.80;2263880;77;21035;-81
2021/09/09 07:56:11;;;;;;;18.40;16.60;;;;;;;21.82;59.75;99333.81;2277181;77;21704;-79
2021/09/09 07:59:11;;;;;;;19.67;16.40;;;;;;;21.86;59.32;99330.16;2286985;78;20967;-79
2021/09/09 08:02:12;;;;;;;48.42;18.25;;;;;;;22.01;58.70;99328.42;2285890;78;20983;-81
2021/09/09 08:05:15;;;;;;;157.70;25.70;;;;;;;22.08;57.96;99331.82;2229488;78;21034;-80
2021/09/09 08:08:15;;;;;;;16.00;14.35;;;;;;;22.13;58.26;99330.78;2278088;77;21011;-80
2021/09/09 08:11:16;;;;;;;35.20;14.65;;;;;;;22.25;57.93;99325.13;2254543;77;20991;-80
2021/09/09 08:14:17;;;;;;;20.97;15.25;;;;;;;22.40;56.38;99329.59;2286942;77;20995;-80
2021/09/09 08:17:17;;;;;;;42.95;16.70;;;;;;;22.51;57.04;99331.04;2290969;77;20972;-80
2021/09/09 08:20:17;;;;;;;17.02;13.28;;;;;;;22.69;55.60;99332.33;2283394;77;20956;-79
2021/09/09 08:23:18;;;;;;;14.65;12.93;;;;;;;22.91;52.55;99329.05;2257543;78;21030;-80
2021/09/09 08:26:19;;;;;;;13.95;11.43;;;;;;;23.00;53.43;99328.77;2274465;78;21103;-80
2021/09/09 08:29:19;;;;;;;22.77;12.85;;;;;;;23.10;51.97;99324.44;2266563;77;20992;-80
2021/09/09 08:32:20;;;;;;;14.95;13.48;;;;;;;23.17;52.84;99329.11;2287851;77;21348;-80
2021/09/09 08:35:20;;;;;;;16.02;11.03;;;;;;;23.36;52.78;99327.61;2280705;77;21318;-80
2021/09/09 08:38:21;;;;;;;54.38;14.65;;;;;;;23.45;50.29;99324.67;2276567;77;21019;-79
2021/09/09 08:41:21;;;;;;;18.07;9.80;;;;;;;23.56;49.98;99319.48;2283751;77;20984;-81
2021/09/09 08:44:22;;;;;;;15.00;10.90;;;;;;;23.68;48.17;99313.74;2204769;80;21008;-80
2021/09/09 08:47:23;;;;;;;15.90;10.72;;;;;;;23.78;49.02;99313.84;2198700;80;20965;-80
2021/09/09 08:50:23;;;;;;;25.27;15.18;;;;;;;23.91;48.83;99317.82;2216600;79;21047;-81
2021/09/09 08:53:24;;;;;;;26.90;20.55;;;;;;;24.03;47.86;99313.39;2191139;80;20999;-80
2021/09/09 08:56:24;;;;;;;14.28;10.15;;;;;;;24.18;47.08;99311.11;2235505;79;20992;-81
2021/09/09 08:59:25;;;;;;;43.55;12.15;;;;;;;24.18;46.38;99301.77;2155255;81;21064;-82
2021/09/09 09:02:25;;;;;;;12.95;10.60;;;;;;;24.23;46.33;99302.47;2226984;79;21030;-81
2021/09/09 09:05:26;;;;;;;18.40;10.60;;;;;;;24.39;47.40;99305.05;2202085;80;21043;-81
2021/09/09 09:08:27;;;;;;;15.53;9.95;;;;;;;24.57;46.91;99297.69;2227101;79;21005;-81
2021/09/09 09:11:27;;;;;;;23.40;10.10;;;;;;;24.68;46.57;99299.95;2269510;78;21039;-82
2021/09/09 09:14:28;;;;;;;16.23;9.18;;;;;;;24.81;46.01;99294.55;2264252;77;21387;-81
2021/09/09 09:17:28;;;;;;;13.30;9.20;;;;;;;24.91;45.27;99289.25;2280075;78;20978;-81
2021/09/09 09:20:29;;;;;;;30.95;10.70;;;;;;;25.04;45.37;99285.20;2274208;78;20986;-81
2021/09/09 09:23:29;;;;;;;12.85;9.75;;;;;;;25.12;43.96;99284.89;2259387;78;21015;-80
2021/09/09 09:26:30;;;;;;;11.63;8.80;;;;;;;25.12;43.50;99286.23;2252295;78;21342;-80
2021/09/09 09:29:31;;;;;;;11.75;8.40;;;;;;;25.11;43.61;99283.16;2201185;80;21340;-81
2021/09/09 09:32:31;;;;;;;24.10;9.38;;;;;;;25.15;42.25;99284.80;2165623;80;20968;-81
2021/09/09 09:35:32;;;;;;;12.78;8.08;;;;;;;25.19;43.24;99277.53;2179418;80;20964;-80
2021/09/09 09:38:32;;;;;;;18.10;11.73;;;;;;;25.21;42.46;99286.35;2176278;80;21047;-81
2021/09/09 09:41:33;;;;;;;11.22;9.98;;;;;;;25.27;42.12;99287.44;2183740;80;20996;-81
2021/09/09 09:44:34;;;;;;;11.38;7.83;;;;;;;25.31;42.43;99289.05;2192328;80;20974;-79
2021/09/09 09:47:35;;;;;;;14.33;7.30;;;;;;;25.43;41.96;99279.66;2203815;80;21019;-81
2021/09/09 09:50:35;;;;;;;13.05;6.50;;;;;;;25.55;40.49;99285.83;2183178;80;21011;-80
2021/09/09 09:53:36;;;;;;;23.75;8.40;;;;;;;25.53;37.36;99277.87;2188312;80;20972;-81
2021/09/09 09:56:36;;;;;;;8.10;7.20;;;;;;;25.54;38.89;99282.75;2200283;80;21058;-81
2021/09/09 09:59:37;;;;;;;9.18;6.97;;;;;;;25.57;38.74;99278.14;2208686;80;21363;-80
2021/09/09 10:02:37;;;;;;;10.23;6.65;;;;;;;25.60;38.98;99280.69;2187129;80;21015;-81
2021/09/09 10:05:39;;;;;;;11.63;7.10;;;;;;;25.74;38.78;99269.91;2189082;80;21475;-81
2021/09/09 10:08:40;;;;;;;8.18;7.10;;;;;;;25.81;38.44;99271.38;2187559;80;21003;-81
2021/09/09 10:11:40;;;;;;;10.00;7.12;;;;;;;25.88;38.15;99267.03;2198198;80;21375;-81
2021/09/09 10:14:41;;;;;;;9.30;7.35;;;;;;;25.94;38.13;99264.09;2202252;80;20994;-80
2021/09/09 10:17:41;;;;;;;11.53;7.35;;;;;;;25.88;38.23;99260.34;2177689;80;20995;-81
2021/09/09 10:20:42;;;;;;;9.20;7.85;;;;;;;25.79;39.04;99253.20;2178244;80;20999;-82
2021/09/09 10:23:42;;;;;;;11.10;7.92;;;;;;;25.84;38.33;99253.87;2176407;80;20982;-81
2021/09/09 10:26:43;;;;;;;26.27;8.40;;;;;;;25.91;37.28;99249.52;2196590;80;21426;-82
2021/09/09 10:29:43;;;;;;;23.38;7.78;;;;;;;26.01;36.39;99257.56;2201319;80;21471;-81
2021/09/09 10:32:47;;;;;;;9.07;6.50;;;;;;;26.11;36.09;99258.02;2242695;77;20939;-82
2021/09/09 10:35:47;;;;;;;10.65;6.58;;;;;;;26.18;35.51;99257.28;2205437;80;21090;-82
2021/09/09 10:41:52;;;;;;;11.97;7.50;;;;;;;26.05;36.39;99248.06;2190056;79;21022;-82
2021/09/09 10:44:53;;;;;;;142.00;18.75;;;;;;;26.06;35.69;99243.98;2203458;80;21012;-82
2021/09/09 10:47:53;;;;;;;11.25;7.05;;;;;;;26.03;36.20;99239.64;2200676;81;20995;-80
2021/09/09 10:50:54;;;;;;;10.10;7.30;;;;;;;26.07;34.78;99231.48;2176069;80;21004;-82
2021/09/09 10:53:54;;;;;;;24.72;8.53;;;;;;;25.87;35.52;99231.00;2190659;80;20988;-81
2021/09/09 10:56:55;;;;;;;11.20;7.08;;;;;;;25.89;35.59;99228.66;2165491;80;20995;-82
2021/09/09 11:00:00;;;;;;;15.65;7.12;;;;;;;25.96;35.87;99234.60;2165870;80;20990;-83
2021/09/09 11:03:00;;;;;;;17.02;7.53;;;;;;;25.97;36.37;99233.66;2217678;80;20968;-81
2021/09/09 11:06:01;;;;;;;16.40;8.63;;;;;;;26.02;35.60;99229.88;2191034;80;20978;-82
2021/09/09 11:09:01;;;;;;;12.80;7.50;;;;;;;26.07;35.85;99224.80;2184807;80;21036;-83
2021/09/09 11:12:02;;;;;;;9.73;7.55;;;;;;;26.12;35.48;99225.45;2196911;80;20983;-84
2021/09/09 11:15:03;;;;;;;56.48;11.30;;;;;;;26.20;35.73;99215.27;2189106;80;20996;-82
2021/09/09 11:18:03;;;;;;;9.03;6.75;;;;;;;26.33;35.27;99213.33;2199601;80;21015;-82
2021/09/09 11:21:04;;;;;;;21.95;7.22;;;;;;;26.42;33.93;99219.19;2205352;80;21031;-82
2021/09/09 11:24:04;;;;;;;13.68;6.87;;;;;;;26.38;34.42;99210.91;2196945;80;21008;-82
2021/09/09 11:27:05;;;;;;;15.08;13.55;;;;;;;26.39;33.82;99214.84;2185212;80;21070;-83
2021/09/09 11:30:06;;;;;;;29.18;11.18;;;;;;;26.40;34.17;99209.89;2193633;80;21054;-81
2021/09/09 11:33:07;;;;;;;7.42;6.65;;;;;;;26.40;32.66;99195.17;2200605;80;20960;-82
2021/09/09 11:39:10;;;;;;;9.00;6.33;;;;;;;26.26;34.82;99197.12;2228662;77;21006;-81
2021/09/09 11:42:10;;;;;;;14.00;7.05;;;;;;;26.30;33.85;99201.86;2293667;77;21011;-83
2021/09/09 11:45:11;;;;;;;11.30;7.95;;;;;;;26.36;34.40;99196.26;2278823;77;20979;-82
2021/09/09 11:48:11;;;;;;;26.80;8.00;;;;;;;26.40;34.65;99193.84;2276341;77;20980;-81
2021/09/09 11:51:12;;;;;;;10.30;7.37;;;;;;;26.36;34.28;99186.89;2288915;77;21015;-82
2021/09/09 11:54:12;;;;;;;7.53;6.67;;;;;;;26.35;34.89;99193.19;2270131;78;21093;-81
2021/09/09 11:57:13;;;;;;;8.55;6.83;;;;;;;26.33;34.44;99189.24;2297313;77;20968;-81
2021/09/09 12:00:14;;;;;;;8.25;7.30;;;;;;;26.38;34.95;99186.34;2264814;77;20944;-81
2021/09/09 12:03:14;;;;;;;12.68;7.45;;;;;;;26.45;33.82;99181.10;2276404;78;21414;-81
2021/09/09 12:06:15;;;;;;;10.70;7.37;;;;;;;26.50;34.23;99177.73;2295425;78;20960;-82
2021/09/09 12:09:15;;;;;;;7.47;6.70;;;;;;;26.53;33.93;99178.93;2260340;77;21329;-81
2021/09/09 12:12:16;;;;;;;11.20;7.17;;;;;;;26.51;34.54;99170.11;2290217;78;20992;-80
2021/09/09 12:15:16;;;;;;;8.35;7.33;;;;;;;26.54;34.87;99170.43;2274048;78;21003;-81
2021/09/09 12:18:17;;;;;;;22.52;7.25;;;;;;;26.41;34.46;99163.45;2297957;77;21418;-80
2021/09/09 12:21:17;;;;;;;10.68;6.75;;;;;;;26.35;33.34;99167.76;2275676;78;21019;-81
2021/09/09 12:24:20;;;;;;;16.00;7.22;;;;;;;26.38;32.99;99164.07;2254594;77;20999;-81
2021/09/09 12:27:19;;;;;;;10.68;6.25;;;;;;;26.38;32.71;99159.59;2267554;78;21039;-83
2021/09/09 12:30:19;;;;;;;15.23;7.15;;;;;;;26.41;32.53;99158.10;2260813;77;21046;-82
2021/09/09 12:33:21;;;;;;;8.48;6.67;;;;;;;26.47;32.71;99152.92;2265710;78;21019;-81
2021/09/09 12:36:22;;;;;;;19.45;7.85;;;;;;;26.44;33.25;99149.92;2200144;80;21022;-82
2021/09/09 12:39:23;;;;;;;18.52;7.00;;;;;;;26.43;33.22;99147.33;2195694;81;21839;-81
2021/09/09 12:42:24;;;;;;;9.65;6.30;;;;;;;26.43;32.54;99144.17;2240447;79;21000;-81
2021/09/09 12:45:25;;;;;;;9.28;6.92;;;;;;;26.43;32.42;99149.53;2177364;80;21043;-83
2021/09/09 12:48:26;;;;;;;10.15;6.90;;;;;;;26.43;32.90;99142.84;2197083;80;20977;-82
2021/09/09 12:51:26;;;;;;;11.90;7.50;;;;;;;26.48;33.67;99134.59;2239943;79;20959;-83
2021/09/09 12:54:26;;;;;;;7.37;6.67;;;;;;;26.37;34.07;99135.58;2243875;79;20972;-82
2021/09/09 12:57:27;;;;;;;7.15;6.45;;;;;;;26.33;33.27;99126.36;2228507;79;21022;-82
2021/09/09 13:00:31;;;;;;;6.47;5.87;;;;;;;26.37;34.04;99124.40;2244583;79;21379;-83
2021/09/09 13:03:31;;;;;;;19.32;6.92;;;;;;;26.42;33.71;99117.48;2248579;79;21036;-83
2021/09/09 13:06:32;;;;;;;15.38;7.03;;;;;;;26.44;33.21;99112.45;2223339;79;20979;-83
2021/09/09 13:09:32;;;;;;;11.65;6.75;;;;;;;26.48;32.33;99114.04;2247877;79;21059;-81
2021/09/09 13:12:33;;;;;;;9.05;6.65;;;;;;;26.50;31.70;99106.80;2239780;79;20921;-82
2021/09/09 13:15:33;;;;;;;14.55;6.15;;;;;;;26.45;32.30;99114.19;2244510;79;21383;-83
2021/09/09 13:18:34;;;;;;;22.13;7.15;;;;;;;26.45;32.97;99112.85;2245605;79;21016;-82
2021/09/09 13:21:34;;;;;;;8.45;6.70;;;;;;;26.44;31.97;99108.44;2225551;79;21090;-82
2021/09/09 13:24:35;;;;;;;13.70;8.48;;;;;;;26.44;32.05;99107.10;2297183;77;20971;-82
2021/09/09 13:27:37;;;;;;;8.45;6.70;;;;;;;26.45;32.29;99109.30;2271690;78;21053;-83
2021/09/09 13:30:37;;;;;;;7.47;6.42;;;;;;;26.42;32.87;99114.34;2250977;78;20943;-81
2021/09/09 13:33:38;;;;;;;11.05;6.75;;;;;;;26.31;32.86;99110.81;2203872;80;21067;-83
2021/09/09 13:36:42;;;;;;;13.95;6.83;;;;;;;26.29;32.92;99101.12;2204176;80;20959;-82
2021/09/09 13:39:41;;;;;;;12.00;6.90;;;;;;;26.29;32.86;99107.34;2207233;79;21489;-81
2021/09/09 13:42:41;;;;;;;10.48;6.20;;;;;;;26.30;31.90;99097.50;2184998;80;21007;-81
2021/09/09 13:45:42;;;;;;;21.05;7.65;;;;;;;26.32;32.30;99097.86;2175506;80;21015;-81
2021/09/09 13:48:42;;;;;;;17.90;8.28;;;;;;;26.30;32.33;99094.83;2194406;80;21740;-83
2021/09/09 13:51:43;;;;;;;17.42;7.60;;;;;;;26.27;32.57;99092.30;2198904;80;21015;-83
2021/09/09 13:54:43;;;;;;;11.97;7.50;;;;;;;26.27;33.12;99089.62;2174263;80;20995;-80
2021/09/09 13:57:45;;;;;;;8.73;6.65;;;;;;;26.23;33.24;99086.70;2193165;80;21008;-82